Time;durP1;ratioP1;P1;durP2;ratioP2;P2;SDS_P1;SDS_P2;PMS_P1;PMS_P2;Temp;Humidity;BMP_temperature;BMP_pressure;BME280_temperature;BME280_humidity;BME280_pressure;Samples;Min_cycle;Max_cycle;Signal;HPM_P1;HPM_P2
2021/11/10 00:01:36;;;;;;;7.25;6.35;;;12.50;99.90;;;;;;4870296;29;20078;-92
2021/11/10 00:04:02;;;;;;;7.22;6.53;;;12.50;99.90;;;;;;4876535;29;20017;-92
2021/11/10 00:06:27;;;;;;;11.63;6.90;;;12.60;99.90;;;;;;4870638;29;20052;-92
2021/11/10 00:08:53;;;;;;;9.60;7.93;;;12.50;99.90;;;;;;4870482;29;20026;-93
2021/11/10 00:11:19;;;;;;;9.45;8.10;;;12.50;99.90;;;;;;4867747;29;20024;-94
2021/11/10 00:13:45;;;;;;;10.05;7.90;;;12.50;99.90;;;;;;4886753;29;20041;-94
2021/11/10 00:16:10;;;;;;;10.57;7.93;;;12.60;99.90;;;;;;4887291;29;20047;-92
2021/11/10 00:18:36;;;;;;;9.20;7.95;;;12.50;99.90;;;;;;4868534;29;20019;-93
2021/11/10 00:21:13;;;;;;;7.05;5.95;;;12.50;99.90;;;;;;4869851;29;20051;-92
2021/11/10 00:23:59;;;;;;;7.15;4.93;;;12.50;99.90;;;;;;4887070;29;20022;-92
2021/11/10 00:26:36;;;;;;;8.60;4.43;;;12.50;99.90;;;;;;4886792;29;20056;-92
2021/11/10 00:29:02;;;;;;;5.05;3.85;;;12.50;99.90;;;;;;4863420;29;20283;-93
2021/11/10 00:31:28;;;;;;;4.47;4.05;;;12.50;99.90;;;;;;4882990;29;20025;-93
2021/11/10 00:33:59;;;;;;;4.00;3.00;;;12.40;99.90;;;;;;4887516;29;20084;-93
2021/11/10 00:36:41;;;;;;;3.88;2.40;;;12.40;99.90;;;;;;4868350;29;20030;-92
2021/11/10 00:39:27;;;;;;;2.72;2.40;;;12.30;99.90;;;;;;4887261;29;20043;-92
2021/11/10 00:42:00;;;;;;;2.38;1.73;;;12.30;99.90;;;;;;4870845;29;20025;-94
2021/11/10 00:44:28;;;;;;;2.72;1.70;;;12.20;99.90;;;;;;4868228;29;20288;-93
2021/11/10 00:46:59;;;;;;;3.33;1.83;;;12.20;99.90;;;;;;4852609;29;20049;-93
2021/11/10 00:49:40;;;;;;;2.95;2.35;;;12.10;99.90;;;;;;4871277;29;20050;-94
2021/11/10 00:52:17;;;;;;;3.33;2.42;;;12.10;99.90;;;;;;4887384;29;20046;-92
2021/11/10 00:54:47;;;;;;;4.93;2.50;;;12.10;99.90;;;;;;4855677;29;20033;-94
2021/11/10 00:57:35;;;;;;;2.88;2.17;;;12.10;99.90;;;;;;4866360;29;20050;-93
2021/11/10 01:00:15;;;;;;;4.75;2.13;;;12.00;99.90;;;;;;4886266;29;20026;-93
2021/11/10 01:02:59;;;;;;;2.85;1.15;;;12.00;99.90;;;;;;4884595;29;20037;-93
2021/11/10 01:05:45;;;;;;;0.45;0.45;;;12.00;99.90;;;;;;4886836;29;20013;-93
2021/11/10 01:08:19;;;;;;;0.32;0.32;;;11.90;99.90;;;;;;4883893;29;20026;-93
2021/11/10 01:10:48;;;;;;;0.82;0.30;;;11.90;99.90;;;;;;4885720;29;20034;-92
2021/11/10 01:13:36;;;;;;;0.75;0.30;;;11.80;99.90;;;;;;4870568;29;20061;-91
2021/11/10 01:16:04;;;;;;;2.17;0.22;;;11.80;99.90;;;;;;4885454;29;20040;-91
2021/11/10 01:18:41;;;;;;;0.47;0.30;;;11.70;99.90;;;;;;4868204;29;20024;-90
2021/11/10 01:21:13;;;;;;;0.85;0.38;;;11.60;99.90;;;;;;4884620;29;20025;-91
2021/11/10 01:24:04;;;;;;;0.25;0.22;;;11.50;99.90;;;;;;4885756;29;21035;-90
2021/11/10 01:26:35;;;;;;;1.00;0.30;;;11.50;99.90;;;;;;4885531;29;20314;-91
2021/11/10 01:29:01;;;;;;;0.73;0.28;;;11.40;99.90;;;;;;4870701;29;20045;-91
2021/11/10 01:31:33;;;;;;;1.33;0.30;;;11.30;99.90;;;;;;4870314;29;20055;-90
2021/11/10 01:34:09;;;;;;;1.08;0.32;;;11.30;99.90;;;;;;4870505;29;20052;-91
2021/11/10 01:37:02;;;;;;;1.65;0.50;;;11.20;99.90;;;;;;4870976;29;20018;-92
2021/11/10 01:39:36;;;;;;;1.85;0.40;;;11.10;99.90;;;;;;4870952;29;20017;-89
2021/11/10 01:42:15;;;;;;;0.73;0.20;;;11.10;99.90;;;;;;4869986;29;20038;-90
2021/11/10 01:44:41;;;;;;;0.40;0.40;;;11.10;99.90;;;;;;4869897;29;20050;-96
2021/11/10 01:47:40;;;;;;;0.20;0.20;;;11.00;99.90;;;;;;4869743;29;20029;-93
2021/11/10 01:53:24;;;;;;;0.22;0.22;;;11.00;99.90;;;;;;4884294;29;20045;-92
2021/11/10 01:55:50;;;;;;;1.98;0.20;;;11.00;99.90;;;;;;4886596;29;20025;-91
2021/11/10 01:58:16;;;;;;;0.25;0.20;;;10.90;99.90;;;;;;4886480;29;20037;-92
2021/11/10 02:00:44;;;;;;;1.23;0.25;;;10.90;99.90;;;;;;4870607;29;20080;-93
2021/11/10 02:03:10;;;;;;;0.75;0.20;;;10.90;99.90;;;;;;4870618;29;20059;-93
2021/11/10 02:05:35;;;;;;;0.20;0.20;;;10.80;99.90;;;;;;4870459;29;20025;-95
2021/11/10 02:08:01;;;;;;;0.38;0.20;;;10.80;99.90;;;;;;4870219;29;20025;-93
2021/11/10 02:10:28;;;;;;;0.30;0.20;;;10.70;99.90;;;;;;4886141;29;20036;-91
2021/11/10 02:12:56;;;;;;;0.40;0.20;;;10.70;99.90;;;;;;4866890;29;20054;-93
2021/11/10 02:15:23;;;;;;;1.15;0.28;;;10.70;99.90;;;;;;4867208;29;20014;-92
2021/11/10 02:17:57;;;;;;;0.20;0.20;;;10.70;99.90;;;;;;4867585;29;20045;-94
2021/11/10 02:20:29;;;;;;;1.17;0.30;;;10.60;99.90;;;;;;4866929;29;20030;-92
2021/11/10 02:22:54;;;;;;;0.85;0.43;;;10.60;99.90;;;;;;4866988;29;20030;-93
2021/11/10 02:25:20;;;;;;;0.80;0.20;;;10.60;99.90;;;;;;4867567;29;20029;-93
2021/11/10 02:27:46;;;;;;;0.85;0.30;;;10.60;99.90;;;;;;4866719;29;20018;-93
2021/11/10 02:30:19;;;;;;;0.45;0.22;;;10.50;99.90;;;;;;4866781;29;20046;-92
2021/11/10 02:32:51;;;;;;;2.08;0.50;;;10.50;99.90;;;;;;4866575;29;20026;-93
2021/11/10 02:35:25;;;;;;;1.75;0.22;;;10.50;99.90;;;;;;4866661;29;20025;-93
2021/11/10 02:37:54;;;;;;;3.42;0.30;;;10.40;99.90;;;;;;4866535;29;20014;-93
2021/11/10 02:40:21;;;;;;;0.60;0.22;;;10.40;99.90;;;;;;4866697;29;20025;-92
2021/11/10 02:42:47;;;;;;;2.10;0.35;;;10.40;99.90;;;;;;4866587;29;20049;-93
2021/11/10 02:45:13;;;;;;;1.60;0.30;;;10.40;99.90;;;;;;4866371;29;20025;-93
2021/11/10 02:47:41;;;;;;;1.33;0.50;;;10.40;99.90;;;;;;4866645;29;20042;-92
2021/11/10 02:50:07;;;;;;;1.38;0.30;;;10.40;99.90;;;;;;4865797;29;20022;-93
2021/11/10 02:52:33;;;;;;;1.58;0.30;;;10.40;99.90;;;;;;4865946;29;20018;-93
2021/11/10 02:54:58;;;;;;;0.80;0.40;;;10.40;99.90;;;;;;4866654;29;20026;-93
2021/11/10 02:57:26;;;;;;;0.60;0.50;;;10.40;99.90;;;;;;4848084;29;20034;-93
2021/11/10 02:59:52;;;;;;;1.38;0.47;;;10.50;99.90;;;;;;4850703;29;20022;-93
2021/11/10 03:02:30;;;;;;;1.05;0.40;;;10.40;99.90;;;;;;4835241;29;20019;-93
2021/11/10 03:05:06;;;;;;;0.80;0.40;;;10.50;99.90;;;;;;4848650;29;20038;-94
2021/11/10 03:07:33;;;;;;;0.65;0.35;;;10.50;99.90;;;;;;4865358;29;20026;-92
2021/11/10 03:10:00;;;;;;;4.47;0.57;;;10.50;99.90;;;;;;4850492;29;20063;-94
2021/11/10 03:12:29;;;;;;;3.92;0.40;;;10.50;99.90;;;;;;4867400;29;20041;-94
2021/11/10 03:14:59;;;;;;;4.45;0.50;;;10.50;99.90;;;;;;4884307;29;20022;-92
2021/11/10 03:17:27;;;;;;;1.55;0.80;;;10.50;99.90;;;;;;4884545;29;20362;-94
2021/11/10 03:19:53;;;;;;;3.53;0.60;;;10.50;99.90;;;;;;4868985;29;20024;-93
2021/11/10 03:22:19;;;;;;;4.82;0.50;;;10.50;99.90;;;;;;4884192;29;20014;-94
2021/11/10 03:24:45;;;;;;;1.17;0.60;;;10.50;99.90;;;;;;4884177;29;20029;-93
2021/11/10 03:27:11;;;;;;;3.80;0.50;;;10.40;99.90;;;;;;4868592;29;20024;-93
2021/11/10 03:29:38;;;;;;;2.05;0.95;;;10.40;99.90;;;;;;4868629;29;20046;-93
2021/11/10 03:32:05;;;;;;;2.38;0.60;;;10.40;99.90;;;;;;4884517;29;20026;-93
2021/11/10 03:34:32;;;;;;;0.90;0.70;;;10.40;99.90;;;;;;4871586;29;20036;-95
2021/11/10 03:36:57;;;;;;;2.88;0.65;;;10.40;99.90;;;;;;4871700;29;20229;-94
2021/11/10 03:39:23;;;;;;;1.92;0.63;;;10.30;99.90;;;;;;4872264;29;20034;-91
2021/11/10 03:41:49;;;;;;;1.45;0.47;;;10.30;99.90;;;;;;4887664;29;20043;-92
2021/11/10 03:44:15;;;;;;;5.70;0.88;;;10.30;99.90;;;;;;4888083;29;20048;-93
2021/11/10 03:46:42;;;;;;;3.00;0.82;;;10.30;99.90;;;;;;4871754;29;20021;-91
2021/11/10 03:49:09;;;;;;;6.40;0.50;;;10.30;99.90;;;;;;4871734;29;20014;-92
2021/11/10 03:51:41;;;;;;;1.75;1.10;;;10.30;99.90;;;;;;4871662;29;20092;-94
2021/11/10 03:54:07;;;;;;;6.22;0.90;;;10.40;99.90;;;;;;4871810;29;20096;-93
2021/11/10 03:56:33;;;;;;;5.55;1.00;;;10.30;99.90;;;;;;4871718;29;20018;-93
2021/11/10 03:58:59;;;;;;;4.53;0.90;;;10.40;99.90;;;;;;4871775;29;20017;-94
2021/11/10 04:01:24;;;;;;;2.83;0.77;;;10.40;99.90;;;;;;4871347;29;20085;-92
2021/11/10 04:03:50;;;;;;;6.15;1.20;;;10.40;99.90;;;;;;4886908;29;20021;-94
2021/11/10 04:06:16;;;;;;;3.45;0.70;;;10.40;99.90;;;;;;4871191;29;20033;-91
2021/11/10 04:08:44;;;;;;;4.03;0.73;;;10.40;99.90;;;;;;4871622;29;20033;-91
2021/11/10 04:11:10;;;;;;;4.07;0.80;;;10.40;99.90;;;;;;4886494;29;20029;-93
2021/11/10 04:13:39;;;;;;;4.13;0.80;;;10.40;99.90;;;;;;4873691;29;20070;-93
2021/11/10 04:16:05;;;;;;;3.67;1.00;;;10.40;99.90;;;;;;4852673;29;20014;-91
2021/11/10 04:18:34;;;;;;;0.88;0.60;;;10.40;99.90;;;;;;4852953;29;20020;-92
2021/11/10 04:21:01;;;;;;;0.95;0.60;;;10.40;99.90;;;;;;4853888;29;20055;-92
2021/11/10 04:23:28;;;;;;;1.85;0.60;;;10.40;99.90;;;;;;4869676;29;20033;-91
2021/11/10 04:25:54;;;;;;;5.80;0.80;;;10.30;99.90;;;;;;4869719;29;20030;-91
2021/11/10 04:28:20;;;;;;;2.03;0.77;;;10.30;99.90;;;;;;4853902;29;20006;-91
2021/11/10 04:30:46;;;;;;;2.55;0.70;;;10.30;99.90;;;;;;4869515;29;20033;-92
2021/11/10 04:33:12;;;;;;;1.52;0.70;;;10.30;99.90;;;;;;4853900;29;20018;-91
2021/11/10 04:35:41;;;;;;;2.22;0.75;;;10.30;99.90;;;;;;4869650;29;20037;-90
2021/11/10 04:38:07;;;;;;;1.08;0.50;;;10.30;99.90;;;;;;4869604;29;20014;-90
2021/11/10 04:40:33;;;;;;;1.85;0.70;;;10.30;99.90;;;;;;4853497;29;20086;-92
2021/11/10 04:42:58;;;;;;;3.53;0.63;;;10.30;99.90;;;;;;4853634;29;20034;-90
2021/11/10 04:45:32;;;;;;;2.53;0.80;;;10.30;99.90;;;;;;4868951;29;20026;-90
2021/11/10 04:47:58;;;;;;;2.88;0.77;;;10.30;99.90;;;;;;4853652;29;20044;-90
2021/11/10 04:50:23;;;;;;;3.22;0.90;;;10.30;99.90;;;;;;4853322;29;20042;-92
2021/11/10 04:52:50;;;;;;;3.20;0.80;;;10.30;99.90;;;;;;4869102;29;20010;-93
2021/11/10 04:55:16;;;;;;;2.88;1.10;;;10.30;99.90;;;;;;4853456;29;20026;-90
2021/11/10 04:57:42;;;;;;;1.05;0.90;;;10.30;99.90;;;;;;4852482;29;20029;-92
2021/11/10 05:00:10;;;;;;;1.42;0.70;;;10.20;99.90;;;;;;4852892;29;20022;-92
2021/11/10 05:02:37;;;;;;;2.38;0.57;;;10.20;99.90;;;;;;4853139;29;20090;-91
2021/11/10 05:05:17;;;;;;;3.00;0.93;;;10.20;99.90;;;;;;4868837;29;20084;-92
2021/11/10 05:07:51;;;;;;;2.80;0.90;;;10.20;99.90;;;;;;4853485;29;20033;-92
2021/11/10 05:10:21;;;;;;;3.45;0.77;;;10.20;99.90;;;;;;4868192;29;20041;-90
2021/11/10 05:12:49;;;;;;;1.83;0.70;;;10.20;99.90;;;;;;4872213;29;20037;-89
2021/11/10 05:15:37;;;;;;;3.08;1.10;;;10.20;99.90;;;;;;4886127;29;20042;-90
2021/11/10 05:18:04;;;;;;;3.67;1.00;;;10.10;99.90;;;;;;4886862;29;20033;-92
2021/11/10 05:20:29;;;;;;;2.65;0.88;;;10.20;99.90;;;;;;4871299;29;20033;-90
2021/11/10 05:22:55;;;;;;;3.53;0.80;;;10.10;99.90;;;;;;4871250;29;20021;-91
2021/11/10 05:25:21;;;;;;;1.90;0.85;;;10.10;99.90;;;;;;4879018;29;20045;-90
2021/11/10 05:27:49;;;;;;;4.05;1.05;;;10.20;99.90;;;;;;4887127;29;20021;-90
2021/11/10 05:30:14;;;;;;;3.90;0.70;;;10.20;99.90;;;;;;4871129;29;20049;-89
2021/11/10 05:32:42;;;;;;;2.45;0.90;;;10.20;99.90;;;;;;4886734;29;20046;-91
2021/11/10 05:35:12;;;;;;;4.03;1.10;;;10.20;99.90;;;;;;4870658;29;20040;-90
2021/11/10 05:37:53;;;;;;;3.90;0.93;;;10.20;99.90;;;;;;4875674;29;20030;-91
2021/11/10 05:40:44;;;;;;;1.65;0.75;;;10.20;99.90;;;;;;4886203;29;20018;-92
2021/11/10 05:43:20;;;;;;;3.03;0.90;;;10.20;99.90;;;;;;4885375;29;20028;-93
2021/11/10 05:46:40;;;;;;;2.45;0.82;;;10.10;99.90;;;;;;4886491;29;20025;-91
2021/11/10 05:49:09;;;;;;;1.83;0.88;;;10.10;99.90;;;;;;4885730;29;20045;-92
2021/11/10 05:51:55;;;;;;;3.50;0.82;;;10.10;99.90;;;;;;4869612;29;20085;-91
2021/11/10 05:54:21;;;;;;;3.08;0.98;;;10.10;99.90;;;;;;4869565;29;20017;-92
2021/11/10 05:56:47;;;;;;;4.22;0.80;;;10.10;99.90;;;;;;4869575;29;20042;-92
2021/11/10 05:59:13;;;;;;;3.17;0.80;;;10.10;99.90;;;;;;4885676;29;20015;-91
2021/11/10 06:01:38;;;;;;;3.05;1.02;;;10.00;99.90;;;;;;4885303;29;20022;-91
2021/11/10 06:04:07;;;;;;;0.93;0.70;;;10.10;99.90;;;;;;4869869;29;20040;-93
2021/11/10 06:06:33;;;;;;;3.40;0.90;;;10.10;99.90;;;;;;4885714;29;20018;-91
2021/11/10 06:08:58;;;;;;;2.38;0.90;;;10.10;99.90;;;;;;4869366;29;20020;-92
2021/11/10 06:11:28;;;;;;;6.20;3.30;;;10.10;99.90;;;;;;4869306;29;20063;-92
2021/11/10 06:13:58;;;;;;;5.23;1.10;;;10.00;99.90;;;;;;4869104;29;20056;-92
2021/11/10 06:16:33;;;;;;;1.80;1.05;;;10.00;99.90;;;;;;4864603;29;20056;-92
2021/11/10 06:19:11;;;;;;;3.17;1.20;;;10.00;99.90;;;;;;4849458;29;20021;-92
2021/11/10 06:21:40;;;;;;;5.22;1.20;;;10.00;99.90;;;;;;4883427;29;20025;-91
2021/11/10 06:24:14;;;;;;;3.90;1.30;;;10.10;99.90;;;;;;4884743;29;20014;-93
2021/11/10 06:26:40;;;;;;;6.47;1.17;;;10.10;99.90;;;;;;4868971;29;20037;-91
2021/11/10 06:29:06;;;;;;;4.68;0.98;;;10.00;99.90;;;;;;4885636;29;20040;-92
2021/11/10 06:31:31;;;;;;;7.75;1.30;;;10.00;99.90;;;;;;4869606;29;20029;-92
2021/11/10 06:33:57;;;;;;;6.25;1.80;;;10.00;99.90;;;;;;4869531;29;20045;-91
2021/11/10 06:36:22;;;;;;;7.90;1.45;;;10.00;99.90;;;;;;4884935;29;20017;-91
2021/11/10 06:38:48;;;;;;;3.92;0.90;;;10.00;99.90;;;;;;4884565;29;20073;-92
2021/11/10 06:41:18;;;;;;;3.42;1.20;;;10.00;99.90;;;;;;4884435;29;20025;-92
2021/11/10 06:43:45;;;;;;;10.63;2.30;;;10.00;99.90;;;;;;4868984;29;20048;-92
2021/11/10 06:46:11;;;;;;;12.00;1.80;;;10.00;99.90;;;;;;4873766;29;20016;-93
2021/11/10 06:48:37;;;;;;;9.80;2.45;;;10.00;99.90;;;;;;4868330;29;20076;-92
2021/11/10 06:51:07;;;;;;;6.60;1.90;;;10.00;99.90;;;;;;4865718;29;20046;-92
2021/11/10 06:53:33;;;;;;;5.43;1.98;;;10.00;99.90;;;;;;4866485;29;20022;-93
2021/11/10 06:55:58;;;;;;;11.10;2.42;;;10.00;99.90;;;;;;4877223;29;20021;-90
2021/11/10 06:58:24;;;;;;;7.30;2.05;;;10.00;99.90;;;;;;4869351;29;20053;-92
2021/11/10 07:00:50;;;;;;;7.38;1.75;;;10.00;99.90;;;;;;4869093;29;20017;-90
2021/11/10 07:03:15;;;;;;;12.25;3.90;;;10.00;99.90;;;;;;4885496;29;20017;-89
2021/11/10 07:05:41;;;;;;;9.43;2.15;;;10.00;99.90;;;;;;4869986;29;20018;-91
2021/11/10 07:08:13;;;;;;;9.02;2.10;;;10.00;99.90;;;;;;4886821;29;20021;-91
2021/11/10 07:10:38;;;;;;;7.18;1.73;;;10.00;99.90;;;;;;4873670;29;20048;-91
2021/11/10 07:13:04;;;;;;;11.95;2.20;;;10.00;99.90;;;;;;4872839;29;20104;-91
2021/11/10 07:15:30;;;;;;;9.63;2.53;;;10.00;99.90;;;;;;4872718;29;20025;-89
2021/11/10 07:18:24;;;;;;;7.72;1.80;;;10.00;99.90;;;;;;4872738;29;20048;-91
2021/11/10 07:20:50;;;;;;;10.48;2.10;;;10.00;99.90;;;;;;4870074;29;20032;-91
2021/11/10 07:23:16;;;;;;;7.28;2.20;;;10.00;99.90;;;;;;4878036;29;20013;-94
2021/11/10 07:25:41;;;;;;;8.20;2.00;;;10.00;99.90;;;;;;4886696;29;20018;-93
2021/11/10 07:28:10;;;;;;;16.90;2.47;;;10.00;99.90;;;;;;4887423;29;20022;-93
2021/11/10 07:31:15;;;;;;;6.78;1.90;;;10.00;99.90;;;;;;4888671;29;20025;-94
2021/11/10 07:33:41;;;;;;;4.40;1.42;;;10.00;99.90;;;;;;4887420;29;20014;-92
2021/11/10 07:36:07;;;;;;;7.38;2.25;;;10.00;99.90;;;;;;4886316;29;20075;-93
2021/11/10 07:38:44;;;;;;;8.50;2.03;;;10.10;99.90;;;;;;4887351;29;20901;-92
2021/11/10 07:41:14;;;;;;;7.03;2.20;;;10.10;99.90;;;;;;4884573;29;20017;-93
2021/11/10 07:43:39;;;;;;;7.88;2.40;;;10.10;99.90;;;;;;4885916;29;20058;-93
2021/11/10 07:46:13;;;;;;;6.03;1.95;;;10.10;99.90;;;;;;4868119;29;20053;-91
2021/11/10 07:48:40;;;;;;;9.18;2.72;;;10.10;99.90;;;;;;4868951;29;20025;-93
2021/11/10 07:51:06;;;;;;;7.15;2.53;;;10.10;99.90;;;;;;4852286;29;20042;-94
2021/11/10 07:53:33;;;;;;;9.88;2.30;;;10.10;99.90;;;;;;4886233;29;20021;-92
2021/11/10 07:55:59;;;;;;;11.68;2.13;;;10.10;99.90;;;;;;4862940;29;20022;-92
2021/11/10 07:58:25;;;;;;;4.43;1.70;;;10.10;99.90;;;;;;4876697;29;20073;-92
2021/11/10 08:00:51;;;;;;;6.50;1.92;;;10.10;99.90;;;;;;4871152;29;20018;-92
2021/11/10 08:03:17;;;;;;;8.43;2.45;;;10.00;99.90;;;;;;4883232;29;20025;-90
2021/11/10 08:05:42;;;;;;;11.35;2.38;;;10.10;99.90;;;;;;4858169;29;20053;-92
2021/11/10 08:08:11;;;;;;;7.80;1.88;;;10.10;99.90;;;;;;4880519;29;20017;-91
2021/11/10 08:10:37;;;;;;;15.30;2.63;;;10.10;99.90;;;;;;4887723;29;20025;-92
2021/11/10 08:13:06;;;;;;;5.53;2.08;;;10.10;99.90;;;;;;4887201;29;20062;-91
2021/11/10 08:15:32;;;;;;;9.82;2.10;;;10.10;99.90;;;;;;4871580;29;20013;-91
2021/11/10 08:17:57;;;;;;;4.32;2.50;;;10.10;99.90;;;;;;4871256;29;20010;-92
2021/11/10 08:20:23;;;;;;;4.82;1.70;;;10.10;99.90;;;;;;4886902;29;20033;-92
2021/11/10 08:22:49;;;;;;;8.82;2.00;;;10.10;99.90;;;;;;4887439;29;20014;-92
2021/11/10 08:25:18;;;;;;;10.50;2.00;;;10.10;99.90;;;;;;4871739;29;20017;-91
2021/11/10 08:27:45;;;;;;;6.63;1.83;;;10.10;99.90;;;;;;4869842;29;20037;-96
2021/11/10 08:30:14;;;;;;;11.55;2.42;;;10.10;99.90;;;;;;4865730;29;20038;-95
2021/11/10 08:32:41;;;;;;;7.00;2.25;;;10.10;99.90;;;;;;4864863;29;20025;-93
2021/11/10 08:35:08;;;;;;;14.73;2.15;;;10.10;99.90;;;;;;4870079;29;20040;-94
2021/11/10 08:37:36;;;;;;;7.97;1.90;;;10.10;99.90;;;;;;4885365;29;20030;-92
2021/11/10 08:40:04;;;;;;;8.60;2.30;;;10.20;99.90;;;;;;4879197;29;20033;-94
2021/11/10 08:42:33;;;;;;;4.68;1.98;;;10.20;99.90;;;;;;4868285;29;20072;-92
2021/11/10 08:45:02;;;;;;;6.03;1.90;;;10.20;99.90;;;;;;4868157;29;20027;-92
2021/11/10 08:47:28;;;;;;;9.93;2.40;;;10.20;99.90;;;;;;4866092;29;20029;-96
2021/11/10 08:49:54;;;;;;;9.00;2.72;;;10.20;99.90;;;;;;4879407;29;20076;-96
2021/11/10 08:52:20;;;;;;;8.55;3.03;;;10.30;99.90;;;;;;4868787;29;20021;-96
2021/11/10 08:54:47;;;;;;;12.43;2.47;;;10.30;99.90;;;;;;4885291;29;20037;-94
2021/11/10 08:57:12;;;;;;;11.60;3.53;;;10.30;99.90;;;;;;4882277;29;20030;-94
2021/11/10 08:59:39;;;;;;;10.02;2.40;;;10.30;99.90;;;;;;4868090;29;20054;-94
2021/11/10 09:02:06;;;;;;;14.70;2.70;;;10.30;99.90;;;;;;4852467;29;20033;-96
2021/11/10 09:04:32;;;;;;;9.35;2.83;;;10.30;99.90;;;;;;4865806;29;20026;-96
2021/11/10 09:06:58;;;;;;;11.70;2.72;;;10.30;99.90;;;;;;4853311;29;20525;-95
2021/11/10 09:09:23;;;;;;;12.32;2.38;;;10.30;99.90;;;;;;4848994;29;20113;-96
2021/11/10 09:11:50;;;;;;;8.02;2.25;;;10.30;99.90;;;;;;4855377;29;20061;-95
2021/11/10 09:14:18;;;;;;;10.52;3.00;;;10.40;99.90;;;;;;4848288;29;20057;-95
2021/11/10 09:16:45;;;;;;;11.48;2.78;;;10.40;99.90;;;;;;4846228;29;20045;-95
2021/11/10 09:19:13;;;;;;;5.47;1.83;;;10.40;99.90;;;;;;4845804;29;20068;-95
2021/11/10 09:21:38;;;;;;;6.60;2.75;;;10.50;99.90;;;;;;4838243;29;20518;-96
2021/11/10 09:24:06;;;;;;;7.35;2.30;;;10.60;99.90;;;;;;4843152;29;20107;-93
2021/11/10 09:26:32;;;;;;;14.82;3.40;;;10.60;99.90;;;;;;4841941;29;20021;-94
2021/11/10 09:28:58;;;;;;;15.63;3.50;;;10.70;99.90;;;;;;4843185;29;20480;-94
2021/11/10 09:31:24;;;;;;;13.50;3.53;;;10.70;99.90;;;;;;4853587;29;20048;-94
2021/11/10 09:33:56;;;;;;;13.98;3.53;;;10.80;99.90;;;;;;4843297;29;20021;-95
2021/11/10 09:36:22;;;;;;;8.10;3.25;;;10.80;99.90;;;;;;4843263;29;20050;-95
2021/11/10 09:38:49;;;;;;;11.32;3.30;;;10.80;99.90;;;;;;4844052;29;20115;-94
2021/11/10 09:41:15;;;;;;;13.02;3.40;;;10.90;99.90;;;;;;4845203;29;20037;-95
2021/11/10 09:43:42;;;;;;;7.90;3.58;;;11.00;99.90;;;;;;4840173;29;20120;-94
2021/11/10 09:46:10;;;;;;;10.07;3.20;;;11.00;99.90;;;;;;4844580;29;20037;-95
2021/11/10 09:48:36;;;;;;;7.60;2.78;;;11.00;99.90;;;;;;4843263;29;20033;-96
2021/11/10 09:51:03;;;;;;;11.10;3.20;;;11.10;99.90;;;;;;4858094;29;20068;-95
2021/11/10 09:53:29;;;;;;;11.75;3.20;;;11.10;99.90;;;;;;4846232;29;20105;-95
2021/11/10 09:55:56;;;;;;;16.98;4.70;;;11.10;99.90;;;;;;4841816;29;20034;-94
2021/11/10 09:58:23;;;;;;;19.35;3.53;;;11.20;99.90;;;;;;4856921;29;20030;-94
2021/11/10 10:00:53;;;;;;;11.32;3.30;;;11.20;99.90;;;;;;4853977;29;20031;-94
2021/11/10 10:03:21;;;;;;;11.18;3.38;;;11.20;99.90;;;;;;4856915;29;20102;-94
2021/11/10 10:05:49;;;;;;;10.93;2.92;;;11.20;99.90;;;;;;4866025;29;20045;-93
2021/11/10 10:08:16;;;;;;;12.82;3.65;;;11.20;99.90;;;;;;4854538;29;20029;-95
2021/11/10 10:10:43;;;;;;;9.18;3.50;;;11.20;99.90;;;;;;4853600;29;20055;-94
2021/11/10 10:13:09;;;;;;;14.93;4.50;;;11.30;99.90;;;;;;4856600;29;20049;-94
2021/11/10 10:15:36;;;;;;;7.38;3.40;;;11.30;99.90;;;;;;4856732;29;20041;-93
2021/11/10 10:18:11;;;;;;;10.38;3.20;;;11.30;99.90;;;;;;4848911;29;20033;-93
2021/11/10 10:20:40;;;;;;;10.85;3.55;;;11.30;99.90;;;;;;4841085;29;20061;-95
2021/11/10 10:23:16;;;;;;;11.48;3.30;;;11.30;99.90;;;;;;4853977;29;20029;-93
2021/11/10 10:25:43;;;;;;;12.73;3.53;;;11.30;99.90;;;;;;4841699;29;20041;-94
2021/11/10 10:28:12;;;;;;;14.27;3.78;;;11.40;99.90;;;;;;4850163;29;20021;-93
2021/11/10 10:30:40;;;;;;;13.73;3.78;;;11.40;99.90;;;;;;4844546;29;20415;-94
2021/11/10 10:33:11;;;;;;;8.80;3.10;;;11.40;99.90;;;;;;4845469;29;20053;-94
2021/11/10 10:36:00;;;;;;;17.45;3.70;;;11.40;99.90;;;;;;4843841;29;20061;-93
2021/11/10 10:38:34;;;;;;;9.35;3.28;;;11.50;99.90;;;;;;4859356;29;20034;-94
2021/11/10 10:41:01;;;;;;;19.38;4.55;;;11.50;99.90;;;;;;4851861;29;20032;-93
2021/11/10 10:43:29;;;;;;;24.50;4.65;;;11.50;99.90;;;;;;4849776;29;20065;-95
2021/11/10 10:45:57;;;;;;;13.10;4.28;;;11.50;99.90;;;;;;4857473;29;20057;-95
2021/11/10 10:48:29;;;;;;;13.65;3.83;;;11.50;99.90;;;;;;4857751;29;20479;-95
2021/11/10 10:51:03;;;;;;;12.88;4.32;;;11.50;99.90;;;;;;4849743;29;20042;-95
2021/11/10 10:53:50;;;;;;;12.73;4.78;;;11.50;99.90;;;;;;4863572;29;20030;-94
2021/11/10 10:56:34;;;;;;;15.43;5.15;;;11.50;99.90;;;;;;4869235;29;20029;-95
2021/11/10 10:59:07;;;;;;;11.15;5.15;;;11.60;99.90;;;;;;4845725;29;20072;-95
2021/11/10 11:01:42;;;;;;;17.40;5.25;;;11.60;99.90;;;;;;4844804;29;20109;-95
2021/11/10 11:04:31;;;;;;;18.13;6.13;;;11.70;99.90;;;;;;4846343;29;20052;-95
2021/11/10 11:07:05;;;;;;;17.02;5.93;;;11.70;99.90;;;;;;4842710;29;20074;-95
2021/11/10 11:09:41;;;;;;;16.38;5.60;;;11.70;99.90;;;;;;4846261;29;20026;-95
2021/11/10 11:12:34;;;;;;;15.80;5.90;;;11.70;99.90;;;;;;4844346;29;20487;-95
2021/11/10 11:15:13;;;;;;;20.73;5.78;;;11.70;99.90;;;;;;4841046;29;20076;-95
2021/11/10 11:17:41;;;;;;;20.80;6.38;;;11.70;99.90;;;;;;4823936;29;20484;-94
2021/11/10 11:20:34;;;;;;;12.02;5.30;;;11.70;99.90;;;;;;4839918;29;20026;-94
2021/11/10 11:23:02;;;;;;;14.10;5.53;;;11.70;99.90;;;;;;4835381;29;20035;-94
2021/11/10 11:25:37;;;;;;;15.23;5.30;;;11.60;99.90;;;;;;4820993;29;20030;-94
2021/11/10 11:28:13;;;;;;;18.45;5.82;;;11.60;99.90;;;;;;4835714;29;20030;-94
2021/11/10 11:30:39;;;;;;;19.80;6.03;;;11.60;99.90;;;;;;4797114;29;20058;-94
2021/11/10 11:33:10;;;;;;;19.83;5.93;;;11.60;99.90;;;;;;4830510;29;20023;-94
2021/11/10 11:35:40;;;;;;;17.35;5.88;;;11.70;99.90;;;;;;4827290;29;20022;-94
2021/11/10 11:38:08;;;;;;;16.97;6.10;;;11.70;99.90;;;;;;4819500;29;20484;-94
2021/11/10 11:40:36;;;;;;;20.50;6.82;;;11.70;99.90;;;;;;4828621;29;20769;-94
2021/11/10 11:43:04;;;;;;;16.20;6.80;;;11.70;99.90;;;;;;4819834;29;20552;-95
2021/11/10 11:45:33;;;;;;;18.20;7.18;;;11.60;99.90;;;;;;4826701;29;20033;-95
2021/11/10 11:47:59;;;;;;;23.48;7.43;;;11.60;99.90;;;;;;4828321;29;20029;-95
2021/11/10 11:50:26;;;;;;;16.70;6.38;;;11.70;99.90;;;;;;4821948;29;20030;-94
2021/11/10 11:52:52;;;;;;;12.18;4.57;;;11.70;99.90;;;;;;4824787;29;20042;-95
2021/11/10 11:55:37;;;;;;;10.60;5.00;;;11.70;99.90;;;;;;4820270;29;20018;-94
2021/11/10 11:58:07;;;;;;;17.15;7.32;;;11.60;99.90;;;;;;4845416;29;20026;-95
2021/11/10 12:00:40;;;;;;;19.98;6.45;;;11.70;99.90;;;;;;4827934;29;20038;-95
2021/11/10 12:03:22;;;;;;;13.93;6.65;;;11.70;99.90;;;;;;4830980;29;20026;-95
2021/11/10 12:05:51;;;;;;;17.65;4.82;;;11.70;99.90;;;;;;4832069;29;20101;-95
2021/11/10 12:08:45;;;;;;;22.60;6.13;;;11.70;99.90;;;;;;4823453;29;20022;-94
2021/11/10 12:11:23;;;;;;;17.67;5.25;;;11.70;99.90;;;;;;4830231;29;20046;-94
2021/11/10 12:14:09;;;;;;;11.52;5.28;;;11.70;99.90;;;;;;4835650;29;20406;-95
2021/11/10 12:16:51;;;;;;;12.82;5.43;;;11.70;99.90;;;;;;4829148;29;20040;-94
2021/11/10 12:19:34;;;;;;;9.48;4.32;;;11.70;99.90;;;;;;4828666;29;20026;-95
2021/11/10 12:22:03;;;;;;;15.52;4.85;;;11.70;99.90;;;;;;4829230;29;20030;-96
2021/11/10 12:24:44;;;;;;;16.42;5.78;;;11.70;99.90;;;;;;4829949;29;20080;-92
2021/11/10 12:27:24;;;;;;;12.70;5.63;;;11.70;99.90;;;;;;4829682;29;20030;-95
2021/11/10 12:29:59;;;;;;;11.17;3.70;;;11.70;99.90;;;;;;4829619;29;20026;-95
2021/11/10 12:32:29;;;;;;;13.55;4.03;;;11.80;99.90;;;;;;4827400;29;20321;-95
2021/11/10 12:34:57;;;;;;;10.50;4.00;;;12.00;99.90;;;;;;4837170;29;20069;-95
2021/11/10 12:37:38;;;;;;;15.90;4.82;;;12.10;99.90;;;;;;4826855;29;20034;-96
2021/11/10 12:40:23;;;;;;;10.18;4.82;;;12.20;99.90;;;;;;4827751;29;20026;-95
2021/11/10 12:43:09;;;;;;;11.25;4.50;;;12.40;99.90;;;;;;4833479;29;20022;-96
2021/11/10 12:45:36;;;;;;;12.25;4.05;;;12.50;99.90;;;;;;4843049;29;20062;-96
2021/11/10 12:48:05;;;;;;;9.50;3.75;;;12.60;99.90;;;;;;4843370;29;20105;-95
2021/11/10 12:50:37;;;;;;;11.52;4.60;;;12.70;99.90;;;;;;4844235;29;20068;-95
2021/11/10 12:53:10;;;;;;;9.43;4.47;;;12.90;99.90;;;;;;4836997;29;20041;-95
2021/11/10 12:55:48;;;;;;;14.63;4.30;;;13.00;99.90;;;;;;4831075;29;20057;-95
2021/11/10 12:58:20;;;;;;;12.43;3.88;;;13.00;99.90;;;;;;4829380;29;20071;-95
2021/11/10 13:00:54;;;;;;;9.95;3.80;;;13.10;99.90;;;;;;4829655;29;20060;-95
2021/11/10 13:03:28;;;;;;;10.68;3.90;;;13.10;99.90;;;;;;4829591;29;20037;-96